sensor_id;sensor_type;location;lat;lon;timestamp;pressure;altitude;pressure_sealevel;temperature;humidity
12879;BME280;20617;49.476;10.986;2023-02-17T00:01:08;98997.53;;;8.56;100.00
12879;BME280;20617;49.476;10.986;2023-02-17T00:03:14;98994.94;;;8.56;100.00
12879;BME280;20617;49.476;10.986;2023-02-17T00:05:18;99000.13;;;8.56;100.00
12879;BME280;20617;49.476;10.986;2023-02-17T00:07:23;98989.75;;;8.54;100.00
12879;BME280;20617;49.476;10.986;2023-02-17T00:09:32;98988.00;;;8.56;100.00
12879;BME280;20617;49.476;10.986;2023-02-17T00:11:37;98999.13;;;8.61;100.00
12879;BME280;20617;49.476;10.986;2023-02-17T00:13:45;98985.19;;;8.66;100.00
12879;BME280;20617;49.476;10.986;2023-02-17T00:15:50;98985.94;;;8.69;100.00
12879;BME280;20617;49.476;10.986;2023-02-17T00:17:57;98980.75;;;8.71;100.00
12879;BME280;20617;49.476;10.986;2023-02-17T00:20:03;98979.84;;;8.72;100.00
12879;BME280;20617;49.476;10.986;2023-02-17T00:22:08;98975.44;;;8.75;100.00
12879;BME280;20617;49.476;10.986;2023-02-17T00:24:12;98972.75;;;8.78;100.00
12879;BME280;20617;49.476;10.986;2023-02-17T00:26:18;98973.50;;;8.83;100.00
12879;BME280;20617;49.476;10.986;2023-02-17T00:28:24;98972.53;;;8.89;100.00
12879;BME280;20617;49.476;10.986;2023-02-17T00:30:32;98966.31;;;8.95;100.00
12879;BME280;20617;49.476;10.986;2023-02-17T00:32:36;98972.28;;;8.98;100.00
12879;BME280;20617;49.476;10.986;2023-02-17T00:34:42;98972.34;;;8.97;100.00
12879;BME280;20617;49.476;10.986;2023-02-17T00:36:47;98974.94;;;8.97;100.00
12879;BME280;20617;49.476;10.986;2023-02-17T00:38:55;98974.88;;;8.98;100.00
12879;BME280;20617;49.476;10.986;2023-02-17T00:41:01;98979.16;;;9.01;100.00
12879;BME280;20617;49.476;10.986;2023-02-17T00:43:06;98977.34;;;9.04;100.00
12879;BME280;20617;49.476;10.986;2023-02-17T00:45:11;98973.88;;;9.05;100.00
12879;BME280;20617;49.476;10.986;2023-02-17T00:47:18;98975.53;;;9.08;100.00
12879;BME280;20617;49.476;10.986;2023-02-17T00:49:24;98967.69;;;9.10;100.00
12879;BME280;20617;49.476;10.986;2023-02-17T00:51:31;98975.47;;;9.11;100.00
12879;BME280;20617;49.476;10.986;2023-02-17T00:53:38;98973.72;;;9.12;100.00
12879;BME280;20617;49.476;10.986;2023-02-17T00:55:43;98974.53;;;9.14;100.00
12879;BME280;20617;49.476;10.986;2023-02-17T00:57:48;98969.28;;;9.15;100.00
12879;BME280;20617;49.476;10.986;2023-02-17T00:59:55;98970.13;;;9.16;100.00
12879;BME280;20617;49.476;10.986;2023-02-17T01:02:00;98971.03;;;9.15;100.00
12879;BME280;20617;49.476;10.986;2023-02-17T01:04:07;98973.63;;;9.15;100.00
12879;BME280;20617;49.476;10.986;2023-02-17T01:06:18;98970.19;;;9.14;100.00
12879;BME280;20617;49.476;10.986;2023-02-17T01:08:25;98969.38;;;9.12;100.00
12879;BME280;20617;49.476;10.986;2023-02-17T01:10:31;98972.88;;;9.10;100.00
12879;BME280;20617;49.476;10.986;2023-02-17T01:12:36;98973.03;;;9.05;100.00
12879;BME280;20617;49.476;10.986;2023-02-17T01:14:42;98974.03;;;8.98;100.00
12879;BME280;20617;49.476;10.986;2023-02-17T01:16:48;98980.28;;;8.91;100.00
12879;BME280;20617;49.476;10.986;2023-02-17T01:18:54;98983.91;;;8.83;100.00
12879;BME280;20617;49.476;10.986;2023-02-17T01:21:02;98975.47;;;8.74;100.00
12879;BME280;20617;49.476;10.986;2023-02-17T01:23:09;98979.91;;;8.70;100.00
12879;BME280;20617;49.476;10.986;2023-02-17T01:25:14;98978.22;;;8.68;100.00
12879;BME280;20617;49.476;10.986;2023-02-17T01:27:19;98972.09;;;8.70;100.00
12879;BME280;20617;49.476;10.986;2023-02-17T01:29:24;98973.78;;;8.73;100.00
12879;BME280;20617;49.476;10.986;2023-02-17T01:31:29;98959.91;;;8.74;100.00
12879;BME280;20617;49.476;10.986;2023-02-17T01:33:34;98957.25;;;8.77;100.00
12879;BME280;20617;49.476;10.986;2023-02-17T01:35:38;98950.34;;;8.76;100.00
12879;BME280;20617;49.476;10.986;2023-02-17T01:37:48;98952.00;;;8.78;100.00
12879;BME280;20617;49.476;10.986;2023-02-17T01:39:57;98951.13;;;8.79;100.00
12879;BME280;20617;49.476;10.986;2023-02-17T01:42:02;98948.44;;;8.82;100.00
12879;BME280;20617;49.476;10.986;2023-02-17T01:44:11;98942.25;;;8.88;100.00
12879;BME280;20617;49.476;10.986;2023-02-17T01:46:17;98942.13;;;8.93;100.00
12879;BME280;20617;49.476;10.986;2023-02-17T01:48:23;98947.22;;;8.97;100.00
12879;BME280;20617;49.476;10.986;2023-02-17T01:50:32;98936.75;;;9.00;100.00
12879;BME280;20617;49.476;10.986;2023-02-17T01:52:38;98935.84;;;9.01;100.00
12879;BME280;20617;49.476;10.986;2023-02-17T01:54:48;98934.00;;;9.06;100.00
12879;BME280;20617;49.476;10.986;2023-02-17T01:56:57;98934.06;;;9.05;100.00
12879;BME280;20617;49.476;10.986;2023-02-17T01:59:06;98930.53;;;9.07;100.00
12879;BME280;20617;49.476;10.986;2023-02-17T02:01:13;98928.63;;;9.14;100.00
12879;BME280;20617;49.476;10.986;2023-02-17T02:03:18;98917.31;;;9.17;100.00
12879;BME280;20617;49.476;10.986;2023-02-17T02:05:25;98917.16;;;9.23;100.00
12879;BME280;20617;49.476;10.986;2023-02-17T02:07:33;98910.97;;;9.27;100.00
12879;BME280;20617;49.476;10.986;2023-02-17T02:09:41;98912.56;;;9.33;100.00
12879;BME280;20617;49.476;10.986;2023-02-17T02:11:51;98914.19;;;9.37;100.00
12879;BME280;20617;49.476;10.986;2023-02-17T02:13:56;98913.22;;;9.41;100.00
12879;BME280;20617;49.476;10.986;2023-02-17T02:16:09;98908.84;;;9.41;100.00
12879;BME280;20617;49.476;10.986;2023-02-17T02:18:26;98902.69;;;9.45;100.00
12879;BME280;20617;49.476;10.986;2023-02-17T02:20:52;98894.84;;;9.47;100.00
12879;BME280;20617;49.476;10.986;2023-02-17T02:26:14;98892.31;;;9.45;100.00
12879;BME280;20617;49.476;10.986;2023-02-17T02:28:38;98892.31;;;9.45;100.00
12879;BME280;20617;49.476;10.986;2023-02-17T02:33:10;98894.13;;;9.42;100.00
12879;BME280;20617;49.476;10.986;2023-02-17T02:35:21;98875.91;;;9.43;100.00
12879;BME280;20617;49.476;10.986;2023-02-17T02:37:32;98874.97;;;9.46;100.00
12879;BME280;20617;49.476;10.986;2023-02-17T02:39:41;98871.44;;;9.48;100.00
12879;BME280;20617;49.476;10.986;2023-02-17T02:41:52;98880.06;;;9.49;100.00
12879;BME280;20617;49.476;10.986;2023-02-17T02:43:59;98880.06;;;9.49;100.00
12879;BME280;20617;49.476;10.986;2023-02-17T02:46:07;98877.50;;;9.47;100.00
12879;BME280;20617;49.476;10.986;2023-02-17T02:48:15;98873.16;;;9.48;100.00
12879;BME280;20617;49.476;10.986;2023-02-17T02:50:22;98872.31;;;9.47;100.00
12879;BME280;20617;49.476;10.986;2023-02-17T02:52:38;98866.19;;;9.50;100.00
12879;BME280;20617;49.476;10.986;2023-02-17T02:54:51;98871.34;;;9.51;100.00
12879;BME280;20617;49.476;10.986;2023-02-17T02:57:20;98867.75;;;9.56;100.00
12879;BME280;20617;49.476;10.986;2023-02-17T02:59:43;98864.31;;;9.55;100.00
12879;BME280;20617;49.476;10.986;2023-02-17T03:01:58;98866.81;;;9.58;100.00
12879;BME280;20617;49.476;10.986;2023-02-17T03:04:12;98870.34;;;9.56;100.00
12879;BME280;20617;49.476;10.986;2023-02-17T03:06:23;98864.22;;;9.58;100.00
12879;BME280;20617;49.476;10.986;2023-02-17T03:08:34;98858.25;;;9.55;100.00
12879;BME280;20617;49.476;10.986;2023-02-17T03:10:44;98860.88;;;9.53;100.00
12879;BME280;20617;49.476;10.986;2023-02-17T03:12:50;98855.66;;;9.55;100.00
12879;BME280;20617;49.476;10.986;2023-02-17T03:15:01;98859.94;;;9.57;100.00
12879;BME280;20617;49.476;10.986;2023-02-17T03:17:08;98859.88;;;9.59;100.00
12879;BME280;20617;49.476;10.986;2023-02-17T03:19:17;98863.31;;;9.59;100.00
12879;BME280;20617;49.476;10.986;2023-02-17T03:21:25;98865.81;;;9.62;100.00
12879;BME280;20617;49.476;10.986;2023-02-17T03:23:32;98865.78;;;9.64;100.00
12879;BME280;20617;49.476;10.986;2023-02-17T03:25:37;98864.03;;;9.64;100.00
12879;BME280;20617;49.476;10.986;2023-02-17T03:27:42;98864.84;;;9.66;100.00
12879;BME280;20617;49.476;10.986;2023-02-17T03:29:48;98863.03;;;9.68;100.00
12879;BME280;20617;49.476;10.986;2023-02-17T03:31:54;98854.38;;;9.69;100.00
12879;BME280;20617;49.476;10.986;2023-02-17T03:33:59;98853.47;;;9.70;100.00
12879;BME280;20617;49.476;10.986;2023-02-17T03:36:07;98849.91;;;9.74;100.00
12879;BME280;20617;49.476;10.986;2023-02-17T03:38:12;98857.63;;;9.76;100.00
12879;BME280;20617;49.476;10.986;2023-02-17T03:40:17;98856.72;;;9.77;100.00
12879;BME280;20617;49.476;10.986;2023-02-17T03:42:22;98856.69;;;9.79;100.00
12879;BME280;20617;49.476;10.986;2023-02-17T03:44:27;98853.28;;;9.77;100.00
12879;BME280;20617;49.476;10.986;2023-02-17T03:46:31;98859.31;;;9.77;100.00
12879;BME280;20617;49.476;10.986;2023-02-17T03:48:37;98854.13;;;9.77;100.00
12879;BME280;20617;49.476;10.986;2023-02-17T03:50:41;98856.03;;;9.72;100.00
12879;BME280;20617;49.476;10.986;2023-02-17T03:52:49;98857.72;;;9.73;100.00
12879;BME280;20617;49.476;10.986;2023-02-17T03:54:57;98859.41;;;9.74;100.00
12879;BME280;20617;49.476;10.986;2023-02-17T03:57:02;98859.41;;;9.74;100.00
12879;BME280;20617;49.476;10.986;2023-02-17T03:59:08;98860.34;;;9.71;100.00
12879;BME280;20617;49.476;10.986;2023-02-17T04:01:13;98872.56;;;9.69;100.00
12879;BME280;20617;49.476;10.986;2023-02-17T04:03:18;98875.63;;;9.52;100.00
12879;BME280;20617;49.476;10.986;2023-02-17T04:05:23;98872.22;;;9.50;100.00
12879;BME280;20617;49.476;10.986;2023-02-17T04:07:28;98869.59;;;9.52;100.00
12879;BME280;20617;49.476;10.986;2023-02-17T04:09:36;98875.63;;;9.52;100.00
12879;BME280;20617;49.476;10.986;2023-02-17T04:11:41;98870.41;;;9.54;100.00
12879;BME280;20617;49.476;10.986;2023-02-17T04:13:46;98863.53;;;9.51;100.00
12879;BME280;20617;49.476;10.986;2023-02-17T04:15:51;98862.66;;;9.51;100.00
12879;BME280;20617;49.476;10.986;2023-02-17T04:17:56;98868.69;;;9.53;100.00
12879;BME280;20617;49.476;10.986;2023-02-17T04:20:01;98867.81;;;9.54;100.00
12879;BME280;20617;49.476;10.986;2023-02-17T04:22:06;98865.13;;;9.57;100.00
12879;BME280;20617;49.476;10.986;2023-02-17T04:24:11;98865.13;;;9.57;100.00
12879;BME280;20617;49.476;10.986;2023-02-17T04:26:18;98868.47;;;9.61;100.00
12879;BME280;20617;49.476;10.986;2023-02-17T04:28:23;98858.94;;;9.61;100.00
12879;BME280;20617;49.476;10.986;2023-02-17T04:30:28;98858.88;;;9.63;100.00
12879;BME280;20617;49.476;10.986;2023-02-17T04:32:33;98865.69;;;9.67;100.00
12879;BME280;20617;49.476;10.986;2023-02-17T04:34:39;98863.91;;;9.69;100.00
12879;BME280;20617;49.476;10.986;2023-02-17T04:36:44;98860.41;;;9.70;100.00
12879;BME280;20617;49.476;10.986;2023-02-17T04:38:49;98860.34;;;9.71;100.00
12879;BME280;20617;49.476;10.986;2023-02-17T04:40:55;98862.09;;;9.72;100.00
12879;BME280;20617;49.476;10.986;2023-02-17T04:43:03;98857.63;;;9.76;100.00
12879;BME280;20617;49.476;10.986;2023-02-17T04:45:09;98861.13;;;9.75;100.00
12879;BME280;20617;49.476;10.986;2023-02-17T04:47:14;98853.25;;;9.78;100.00
12879;BME280;20617;49.476;10.986;2023-02-17T04:49:20;98857.53;;;9.79;100.00
12879;BME280;20617;49.476;10.986;2023-02-17T04:51:25;98855.78;;;9.80;100.00
12879;BME280;20617;49.476;10.986;2023-02-17T04:53:29;98843.59;;;9.82;100.00
12879;BME280;20617;49.476;10.986;2023-02-17T04:55:34;98843.59;;;9.82;100.00
12879;BME280;20617;49.476;10.986;2023-02-17T04:57:39;98840.97;;;9.83;100.00
12879;BME280;20617;49.476;10.986;2023-02-17T04:59:47;98846.19;;;9.82;100.00
12879;BME280;20617;49.476;10.986;2023-02-17T05:01:51;98847.06;;;9.82;100.00
12879;BME280;20617;49.476;10.986;2023-02-17T05:03:56;98847.03;;;9.84;100.00
12879;BME280;20617;49.476;10.986;2023-02-17T05:06:01;98840.91;;;9.85;100.00
12879;BME280;20617;49.476;10.986;2023-02-17T05:08:07;98834.03;;;9.84;100.00
12879;BME280;20617;49.476;10.986;2023-02-17T05:10:13;98834.97;;;9.81;100.00
12879;BME280;20617;49.476;10.986;2023-02-17T05:12:20;98835.84;;;9.80;100.00
12879;BME280;20617;49.476;10.986;2023-02-17T05:14:25;98834.13;;;9.81;100.00
12879;BME280;20617;49.476;10.986;2023-02-17T05:16:32;98834.13;;;9.81;100.00
12879;BME280;20617;49.476;10.986;2023-02-17T05:18:37;98834.13;;;9.81;100.00
12879;BME280;20617;49.476;10.986;2023-02-17T05:20:42;98838.41;;;9.82;100.00
12879;BME280;20617;49.476;10.986;2023-02-17T05:22:47;98824.50;;;9.83;100.00
12879;BME280;20617;49.476;10.986;2023-02-17T05:24:52;98832.25;;;9.84;100.00
12879;BME280;20617;49.476;10.986;2023-02-17T05:26:57;98832.38;;;9.80;100.00
12879;BME280;20617;49.476;10.986;2023-02-17T05:29:02;98828.22;;;9.74;100.00
12879;BME280;20617;49.476;10.986;2023-02-17T05:31:07;98820.31;;;9.77;100.00
12879;BME280;20617;49.476;10.986;2023-02-17T05:33:16;98828.94;;;9.79;100.00
12879;BME280;20617;49.476;10.986;2023-02-17T05:35:20;98830.63;;;9.80;100.00
12879;BME280;20617;49.476;10.986;2023-02-17T05:37:25;98828.91;;;9.81;100.00
12879;BME280;20617;49.476;10.986;2023-02-17T05:39:30;98823.81;;;9.78;100.00
12879;BME280;20617;49.476;10.986;2023-02-17T05:41:35;98822.06;;;9.78;100.00
12879;BME280;20617;49.476;10.986;2023-02-17T05:43:40;98822.91;;;9.79;100.00
12879;BME280;20617;49.476;10.986;2023-02-17T05:45:45;98824.59;;;9.80;100.00
12879;BME280;20617;49.476;10.986;2023-02-17T05:47:50;98828.31;;;9.71;100.00
12879;BME280;20617;49.476;10.986;2023-02-17T05:50:00;98835.25;;;9.70;100.00
12879;BME280;20617;49.476;10.986;2023-02-17T05:52:05;98839.81;;;9.64;100.00
12879;BME280;20617;49.476;10.986;2023-02-17T05:54:10;98834.50;;;9.67;100.00
12879;BME280;20617;49.476;10.986;2023-02-17T05:56:15;98835.41;;;9.66;100.00
12879;BME280;20617;49.476;10.986;2023-02-17T05:58:20;98836.34;;;9.63;100.00
12879;BME280;20617;49.476;10.986;2023-02-17T06:00:25;98837.94;;;9.69;100.00
12879;BME280;20617;49.476;10.986;2023-02-17T06:02:29;98838.22;;;9.58;100.00
12879;BME280;20617;49.476;10.986;2023-02-17T06:04:34;98841.66;;;9.59;100.00
12879;BME280;20617;49.476;10.986;2023-02-17T06:06:42;98840.69;;;9.63;100.00
12879;BME280;20617;49.476;10.986;2023-02-17T06:08:47;98834.50;;;9.67;100.00
12879;BME280;20617;49.476;10.986;2023-02-17T06:10:52;98833.28;;;9.79;100.00
12879;BME280;20617;49.476;10.986;2023-02-17T06:12:57;98831.50;;;9.81;100.00
12879;BME280;20617;49.476;10.986;2023-02-17T06:15:02;98841.00;;;9.82;100.00
12879;BME280;20617;49.476;10.986;2023-02-17T06:17:07;98843.56;;;9.83;100.00
12879;BME280;20617;49.476;10.986;2023-02-17T06:19:12;98849.72;;;9.81;100.00
12879;BME280;20617;49.476;10.986;2023-02-17T06:21:17;98842.69;;;9.83;100.00
12879;BME280;20617;49.476;10.986;2023-02-17T06:23:25;98852.34;;;9.79;100.00
12879;BME280;20617;49.476;10.986;2023-02-17T06:25:30;98845.28;;;9.83;100.00
12879;BME280;20617;49.476;10.986;2023-02-17T06:27:35;98849.38;;;9.91;100.00
12879;BME280;20617;49.476;10.986;2023-02-17T06:29:40;98859.94;;;9.87;100.00
12879;BME280;20617;49.476;10.986;2023-02-17T06:31:45;98846.09;;;9.86;100.00
12879;BME280;20617;49.476;10.986;2023-02-17T06:33:50;98849.34;;;9.93;100.00
12879;BME280;20617;49.476;10.986;2023-02-17T06:35:57;98852.84;;;9.92;100.00
12879;BME280;20617;49.476;10.986;2023-02-17T06:38:02;98851.84;;;9.96;100.00
12879;BME280;20617;49.476;10.986;2023-02-17T06:40:11;98859.28;;;10.08;100.00
12879;BME280;20617;49.476;10.986;2023-02-17T06:42:16;98841.16;;;10.05;100.00
12879;BME280;20617;49.476;10.986;2023-02-17T06:44:21;98855.19;;;10.00;100.00
12879;BME280;20617;49.476;10.986;2023-02-17T06:46:26;98847.47;;;9.98;100.00
12879;BME280;20617;49.476;10.986;2023-02-17T06:48:30;98855.44;;;9.92;100.00
12879;BME280;20617;49.476;10.986;2023-02-17T06:50:37;98857.25;;;9.90;100.00
12879;BME280;20617;49.476;10.986;2023-02-17T06:52:42;98864.31;;;9.85;100.00
12879;BME280;20617;49.476;10.986;2023-02-17T06:54:47;98858.13;;;9.89;100.00
12879;BME280;20617;49.476;10.986;2023-02-17T06:56:54;98856.97;;;9.99;100.00
12879;BME280;20617;49.476;10.986;2023-02-17T06:59:00;98861.06;;;10.06;100.00
12879;BME280;20617;49.476;10.986;2023-02-17T07:01:04;98860.22;;;10.06;100.00
12879;BME280;20617;49.476;10.986;2023-02-17T07:03:10;98854.06;;;10.08;100.00
12879;BME280;20617;49.476;10.986;2023-02-17T07:05:15;98853.84;;;10.16;100.00
12879;BME280;20617;49.476;10.986;2023-02-17T07:07:20;98858.44;;;10.08;100.00
12879;BME280;20617;49.476;10.986;2023-02-17T07:09:25;98866.22;;;10.08;100.00
12879;BME280;20617;49.476;10.986;2023-02-17T07:11:30;98869.88;;;10.02;100.00
12879;BME280;20617;49.476;10.986;2023-02-17T07:13:37;98864.56;;;10.05;100.00
12879;BME280;20617;49.476;10.986;2023-02-17T07:15:42;98864.34;;;10.13;100.00
12879;BME280;20617;49.476;10.986;2023-02-17T07:17:47;98872.19;;;10.11;100.00
12879;BME280;20617;49.476;10.986;2023-02-17T07:19:52;98862.13;;;10.01;100.00
12879;BME280;20617;49.476;10.986;2023-02-17T07:21:57;98864.28;;;10.14;100.00
12879;BME280;20617;49.476;10.986;2023-02-17T07:24:02;98858.38;;;10.09;100.00
12879;BME280;20617;49.476;10.986;2023-02-17T07:26:09;98864.09;;;10.20;100.00
12879;BME280;20617;49.476;10.986;2023-02-17T07:28:14;98858.72;;;10.27;100.00
12879;BME280;20617;49.476;10.986;2023-02-17T07:30:21;98854.97;;;10.37;100.00
12879;BME280;20617;49.476;10.986;2023-02-17T07:32:26;98862.03;;;10.32;100.00
12879;BME280;20617;49.476;10.986;2023-02-17T07:34:31;98867.94;;;10.38;100.00
12879;BME280;20617;49.476;10.986;2023-02-17T07:36:36;98860.50;;;10.53;100.00
12879;BME280;20617;49.476;10.986;2023-02-17T07:38:41;98871.81;;;10.53;100.00
12879;BME280;20617;49.476;10.986;2023-02-17T07:40:46;98861.63;;;10.46;100.00
12879;BME280;20617;49.476;10.986;2023-02-17T07:42:51;98868.59;;;10.45;100.00
12879;BME280;20617;49.476;10.986;2023-02-17T07:44:56;98868.81;;;10.37;100.00
12879;BME280;20617;49.476;10.986;2023-02-17T07:47:03;98865.47;;;10.34;100.00
12879;BME280;20617;49.476;10.986;2023-02-17T07:49:08;98862.00;;;10.33;100.00
12879;BME280;20617;49.476;10.986;2023-02-17T07:51:18;98878.66;;;10.26;100.00
12879;BME280;20617;49.476;10.986;2023-02-17T07:53:24;98891.59;;;10.31;100.00
12879;BME280;20617;49.476;10.986;2023-02-17T07:55:29;98894.38;;;10.23;100.00
12879;BME280;20617;49.476;10.986;2023-02-17T07:57:34;98891.00;;;10.21;100.00
12879;BME280;20617;49.476;10.986;2023-02-17T07:59:38;98902.38;;;10.17;100.00
12879;BME280;20617;49.476;10.986;2023-02-17T08:01:43;98892.72;;;10.20;100.00
12879;BME280;20617;49.476;10.986;2023-02-17T08:03:52;98911.13;;;10.14;100.00
12879;BME280;20617;49.476;10.986;2023-02-17T08:05:57;98907.94;;;10.05;100.00
12879;BME280;20617;49.476;10.986;2023-02-17T08:08:04;98919.78;;;10.15;100.00
12879;BME280;20617;49.476;10.986;2023-02-17T08:10:21;98907.47;;;10.20;100.00
12879;BME280;20617;49.476;10.986;2023-02-17T08:12:38;98923.25;;;10.15;100.00
12879;BME280;20617;49.476;10.986;2023-02-17T08:15:06;98916.94;;;10.23;100.00
12879;BME280;20617;49.476;10.986;2023-02-17T08:17:11;98903.00;;;10.25;100.00
12879;BME280;20617;49.476;10.986;2023-02-17T08:19:19;98915.25;;;10.22;100.00
12879;BME280;20617;49.476;10.986;2023-02-17T08:21:26;98912.50;;;10.26;100.00
12879;BME280;20617;49.476;10.986;2023-02-17T08:23:31;98910.75;;;10.28;100.00
12879;BME280;20617;49.476;10.986;2023-02-17T08:25:36;98912.22;;;10.37;100.00
12879;BME280;20617;49.476;10.986;2023-02-17T08:27:41;98901.59;;;10.43;100.00
12879;BME280;20617;49.476;10.986;2023-02-17T08:29:46;98911.28;;;10.39;100.00
12879;BME280;20617;49.476;10.986;2023-02-17T08:31:52;98918.44;;;10.31;100.00
12879;BME280;20617;49.476;10.986;2023-02-17T08:33:59;98914.00;;;10.35;100.00
12879;BME280;20617;49.476;10.986;2023-02-17T08:36:10;98920.22;;;10.31;100.00
12879;BME280;20617;49.476;10.986;2023-02-17T08:38:15;98922.81;;;10.31;100.00
12879;BME280;20617;49.476;10.986;2023-02-17T08:40:20;98935.91;;;10.28;100.00
12879;BME280;20617;49.476;10.986;2023-02-17T08:42:25;98923.56;;;10.34;100.00
12879;BME280;20617;49.476;10.986;2023-02-17T08:44:32;98926.38;;;10.27;100.00
12879;BME280;20617;49.476;10.986;2023-02-17T08:46:39;98930.06;;;10.19;100.00
12879;BME280;20617;49.476;10.986;2023-02-17T08:48:45;98928.16;;;10.25;100.00
12879;BME280;20617;49.476;10.986;2023-02-17T08:50:50;98940.22;;;10.29;100.00
12879;BME280;20617;49.476;10.986;2023-02-17T08:52:58;98952.56;;;10.20;100.00
12879;BME280;20617;49.476;10.986;2023-02-17T08:55:04;98947.72;;;10.08;100.00
12879;BME280;20617;49.476;10.986;2023-02-17T08:57:10;98948.44;;;10.13;100.00
12879;BME280;20617;49.476;10.986;2023-02-17T08:59:15;98960.63;;;10.11;100.00
12879;BME280;20617;49.476;10.986;2023-02-17T09:01:21;98938.75;;;10.18;100.00
12879;BME280;20617;49.476;10.986;2023-02-17T09:03:26;98950.03;;;10.19;100.00
12879;BME280;20617;49.476;10.986;2023-02-17T09:05:31;98947.50;;;10.16;100.00
12879;BME280;20617;49.476;10.986;2023-02-17T09:07:37;98964.06;;;10.13;100.00
12879;BME280;20617;49.476;10.986;2023-02-17T09:09:44;98954.47;;;10.15;100.00
12879;BME280;20617;49.476;10.986;2023-02-17T09:11:49;98951.69;;;10.22;100.00
12879;BME280;20617;49.476;10.986;2023-02-17T09:13:55;98954.06;;;10.29;100.00
12879;BME280;20617;49.476;10.986;2023-02-17T09:16:01;98951.28;;;10.35;100.00
12879;BME280;20617;49.476;10.986;2023-02-17T09:18:06;98952.09;;;10.37;100.00
12879;BME280;20617;49.476;10.986;2023-02-17T09:20:11;98947.84;;;10.35;100.00
12879;BME280;20617;49.476;10.986;2023-02-17T09:22:25;98945.81;;;10.45;100.00
12879;BME280;20617;49.476;10.986;2023-02-17T09:24:33;98949.59;;;10.34;100.00
12879;BME280;20617;49.476;10.986;2023-02-17T09:26:42;98953.19;;;10.30;100.00
12879;BME280;20617;49.476;10.986;2023-02-17T09:28:47;98960.66;;;10.41;100.00
12879;BME280;20617;49.476;10.986;2023-02-17T09:30:52;98953.28;;;10.27;100.00
12879;BME280;20617;49.476;10.986;2023-02-17T09:32:57;98948.53;;;10.41;100.00
12879;BME280;20617;49.476;10.986;2023-02-17T09:35:02;98944.25;;;10.39;100.00
12879;BME280;20617;49.476;10.986;2023-02-17T09:37:09;98960.75;;;10.38;100.00
12879;BME280;20617;49.476;10.986;2023-02-17T09:39:15;98956.59;;;10.32;100.00
12879;BME280;20617;49.476;10.986;2023-02-17T09:41:22;98957.03;;;10.47;100.00
12879;BME280;20617;49.476;10.986;2023-02-17T09:43:31;98948.44;;;10.45;100.00
12879;BME280;20617;49.476;10.986;2023-02-17T09:45:36;98948.34;;;10.48;100.00
12879;BME280;20617;49.476;10.986;2023-02-17T09:47:42;98942.44;;;10.41;100.00
12879;BME280;20617;49.476;10.986;2023-02-17T09:49:51;98950.00;;;10.50;100.00
12879;BME280;20617;49.476;10.986;2023-02-17T09:52:05;98944.88;;;10.47;100.00
12879;BME280;20617;49.476;10.986;2023-02-17T09:54:15;98940.72;;;10.41;100.00
12879;BME280;20617;49.476;10.986;2023-02-17T09:56:27;98937.91;;;10.48;100.00
12879;BME280;20617;49.476;10.986;2023-02-17T09:58:40;98944.72;;;10.52;100.00
12879;BME280;20617;49.476;10.986;2023-02-17T10:00:49;98944.78;;;10.50;100.00
12879;BME280;20617;49.476;10.986;2023-02-17T10:03:01;98944.78;;;10.50;100.00
12879;BME280;20617;49.476;10.986;2023-02-17T10:05:10;98957.19;;;10.42;100.00
12879;BME280;20617;49.476;10.986;2023-02-17T10:07:20;98945.53;;;10.54;100.00
12879;BME280;20617;49.476;10.986;2023-02-17T10:09:31;98945.53;;;10.54;100.00
12879;BME280;20617;49.476;10.986;2023-02-17T10:11:41;98938.44;;;10.59;100.00
12879;BME280;20617;49.476;10.986;2023-02-17T10:13:54;98935.97;;;10.54;100.00
12879;BME280;20617;49.476;10.986;2023-02-17T10:16:06;98927.88;;;10.63;100.00
12879;BME280;20617;49.476;10.986;2023-02-17T10:18:16;98921.84;;;10.61;100.00
12879;BME280;20617;49.476;10.986;2023-02-17T10:20:27;98920.59;;;10.73;100.00
12879;BME280;20617;49.476;10.986;2023-02-17T10:22:35;98925.03;;;10.71;100.00
12879;BME280;20617;49.476;10.986;2023-02-17T10:24:40;98919.72;;;10.74;100.00
12879;BME280;20617;49.476;10.986;2023-02-17T10:26:57;98910.06;;;10.78;100.00
12879;BME280;20617;49.476;10.986;2023-02-17T10:29:19;98924.94;;;10.74;100.00
12879;BME280;20617;49.476;10.986;2023-02-17T10:31:38;98930.94;;;10.76;100.00
12879;BME280;20617;49.476;10.986;2023-02-17T10:33:49;98932.66;;;10.77;100.00
12879;BME280;20617;49.476;10.986;2023-02-17T10:36:09;98929.13;;;10.78;100.00
12879;BME280;20617;49.476;10.986;2023-02-17T10:38:17;98923.50;;;10.91;100.00
12879;BME280;20617;49.476;10.986;2023-02-17T10:40:24;98939.31;;;10.86;100.00
12879;BME280;20617;49.476;10.986;2023-02-17T10:42:33;98938.28;;;10.90;100.00
12879;BME280;20617;49.476;10.986;2023-02-17T10:44:40;98931.19;;;10.95;100.00
12879;BME280;20617;49.476;10.986;2023-02-17T10:46:46;98931.28;;;10.92;100.00
12879;BME280;20617;49.476;10.986;2023-02-17T10:48:59;98915.41;;;11.00;100.00
12879;BME280;20617;49.476;10.986;2023-02-17T10:51:12;98904.78;;;11.06;100.00
12879;BME280;20617;49.476;10.986;2023-02-17T10:53:20;98916.75;;;11.12;100.00
12879;BME280;20617;49.476;10.986;2023-02-17T10:55:32;98921.16;;;11.09;100.00
12879;BME280;20617;49.476;10.986;2023-02-17T10:57:39;98922.81;;;11.12;100.00
12879;BME280;20617;49.476;10.986;2023-02-17T10:59:48;98914.09;;;11.13;100.00
12879;BME280;20617;49.476;10.986;2023-02-17T11:01:55;98908.63;;;11.21;100.00
12879;BME280;20617;49.476;10.986;2023-02-17T11:04:03;98897.28;;;11.22;100.00
12879;BME280;20617;49.476;10.986;2023-02-17T11:06:16;98909.22;;;11.29;100.00